createdAt,value
2023-05-14T00:00:59.913Z,975.43
2023-05-14T00:01:59.951Z,975.37
2023-05-14T00:02:59.975Z,975.34
2023-05-14T00:04:00.092Z,975.34
2023-05-14T00:04:59.836Z,975.34
2023-05-14T00:05:59.844Z,975.35
2023-05-14T00:06:59.820Z,975.31
2023-05-14T00:07:59.826Z,975.32
2023-05-14T00:08:59.798Z,975.33
2023-05-14T00:09:59.770Z,975.30
2023-05-14T00:10:59.772Z,975.31
2023-05-14T00:11:59.754Z,975.24
2023-05-14T00:12:59.771Z,975.27
2023-05-14T00:13:59.731Z,975.23
2023-05-14T00:14:59.716Z,975.23
2023-05-14T00:15:59.726Z,975.28
2023-05-14T00:16:59.688Z,975.27
2023-05-14T00:17:59.705Z,975.26
2023-05-14T00:18:59.703Z,975.22
2023-05-14T00:19:59.657Z,975.26
2023-05-14T00:20:59.627Z,975.25
2023-05-14T00:21:59.644Z,975.26
2023-05-14T00:22:59.605Z,975.22
2023-05-14T00:23:59.633Z,975.23
2023-05-14T00:24:59.606Z,975.22
2023-05-14T00:25:59.603Z,975.22
2023-05-14T00:26:59.567Z,975.16
2023-05-14T00:27:59.588Z,975.16
2023-05-14T00:28:59.577Z,975.17
2023-05-14T00:29:59.529Z,975.12
2023-05-14T00:30:59.572Z,975.18
2023-05-14T00:31:59.526Z,975.10
2023-05-14T00:32:59.565Z,975.16
2023-05-14T00:33:59.505Z,975.09
2023-05-14T00:34:59.540Z,975.07
2023-05-14T00:35:59.484Z,975.08
2023-05-14T00:36:59.447Z,975.10
2023-05-14T00:37:59.446Z,975.00
2023-05-14T00:38:59.435Z,975.05
2023-05-14T00:39:59.458Z,975.03
2023-05-14T00:40:59.403Z,975.06
2023-05-14T00:41:59.408Z,975.02
2023-05-14T00:42:59.390Z,975.05
2023-05-14T00:43:59.372Z,975.00
2023-05-14T00:44:59.370Z,975.02
2023-05-14T00:45:59.410Z,975.01
2023-05-14T00:46:59.503Z,974.98
2023-05-14T00:47:59.359Z,975.00
2023-05-14T00:48:59.297Z,974.95
2023-05-14T00:49:59.295Z,974.92
2023-05-14T00:50:59.332Z,974.92
2023-05-14T00:51:59.271Z,974.85
2023-05-14T00:52:59.262Z,974.94
2023-05-14T00:53:59.258Z,974.95
2023-05-14T00:55:00.231Z,974.88
2023-05-14T00:55:59.265Z,974.93
2023-05-14T00:56:59.215Z,974.93
2023-05-14T00:57:59.204Z,974.93
2023-05-14T00:58:59.187Z,974.94
2023-05-14T00:59:59.170Z,974.93
2023-05-14T01:00:59.155Z,974.88
2023-05-14T01:01:59.194Z,974.91
2023-05-14T01:02:59.185Z,974.89
2023-05-14T01:03:59.288Z,974.93
2023-05-14T01:04:59.132Z,974.90
2023-05-14T01:05:59.109Z,974.93
2023-05-14T01:06:59.129Z,974.92
2023-05-14T01:07:59.302Z,974.86
2023-05-14T01:08:59.076Z,974.84
2023-05-14T01:09:59.058Z,974.86
2023-05-14T01:10:59.032Z,974.83
2023-05-14T01:11:59.108Z,974.81
2023-05-14T01:12:59.042Z,974.83
2023-05-14T01:13:59.017Z,974.82
2023-05-14T01:14:58.993Z,974.86
2023-05-14T01:15:59.050Z,974.84
2023-05-14T01:16:59.178Z,974.88
2023-05-14T01:17:59.039Z,974.87
2023-05-14T01:18:58.967Z,974.83
2023-05-14T01:19:58.943Z,974.86
2023-05-14T01:20:58.909Z,974.81
2023-05-14T01:21:58.957Z,974.84
2023-05-14T01:22:58.945Z,974.87
2023-05-14T01:23:58.894Z,974.86
2023-05-14T01:24:58.899Z,974.85
2023-05-14T01:25:58.852Z,974.87
2023-05-14T01:26:58.855Z,974.82
2023-05-14T01:27:58.881Z,974.85
2023-05-14T01:28:58.824Z,974.86
2023-05-14T01:29:58.828Z,974.89
2023-05-14T01:30:58.821Z,974.79
2023-05-14T01:31:58.822Z,974.82
2023-05-14T01:32:58.835Z,974.82
2023-05-14T01:33:58.793Z,974.86
2023-05-14T01:34:58.756Z,974.90
2023-05-14T01:35:58.808Z,974.86
2023-05-14T01:36:58.736Z,974.85
2023-05-14T01:37:58.706Z,974.90
2023-05-14T01:38:59.743Z,974.88
2023-05-14T01:39:58.687Z,974.79
2023-05-14T01:40:58.673Z,974.86
2023-05-14T01:41:58.679Z,974.86
2023-05-14T01:42:58.685Z,974.88
2023-05-14T01:43:58.678Z,974.84
2023-05-14T01:44:58.649Z,974.86
2023-05-14T01:45:58.673Z,974.86
2023-05-14T01:46:58.627Z,974.87
2023-05-14T01:47:58.678Z,974.83
2023-05-14T01:48:58.643Z,974.81
2023-05-14T01:49:58.641Z,974.81
2023-05-14T01:50:58.615Z,974.85
2023-05-14T01:51:58.635Z,974.79
2023-05-14T01:52:58.654Z,974.82
2023-05-14T01:53:58.614Z,974.83
2023-05-14T01:54:58.569Z,974.87
2023-05-14T01:55:58.601Z,974.86
2023-05-14T01:56:58.520Z,974.84
2023-05-14T01:57:58.481Z,974.81
2023-05-14T01:58:58.573Z,974.79
2023-05-14T01:59:58.461Z,974.79
2023-05-14T02:00:58.486Z,974.77
2023-05-14T02:01:58.649Z,974.80
2023-05-14T02:02:59.024Z,974.80
2023-05-14T02:03:58.464Z,974.70
2023-05-14T02:04:58.426Z,974.77
2023-05-14T02:05:58.391Z,974.79
2023-05-14T02:06:58.374Z,974.74
2023-05-14T02:07:58.358Z,974.78
2023-05-14T02:08:58.369Z,974.72
2023-05-14T02:09:58.357Z,974.74
2023-05-14T02:10:58.345Z,974.71
2023-05-14T02:11:58.814Z,974.75
2023-05-14T02:12:58.335Z,974.69
2023-05-14T02:13:58.324Z,974.74
2023-05-14T02:14:58.288Z,974.73
2023-05-14T02:15:58.401Z,974.69
2023-05-14T02:16:58.293Z,974.68
2023-05-14T02:17:58.261Z,974.73
2023-05-14T02:18:58.318Z,974.75
2023-05-14T02:19:58.239Z,974.70
2023-05-14T02:20:58.204Z,974.73
2023-05-14T02:21:58.200Z,974.69
2023-05-14T02:22:58.222Z,974.66
2023-05-14T02:23:58.209Z,974.71
2023-05-14T02:24:58.180Z,974.65
2023-05-14T02:25:58.378Z,974.65
2023-05-14T02:26:58.144Z,974.60
2023-05-14T02:27:58.115Z,974.70
2023-05-14T02:28:58.131Z,974.71
2023-05-14T02:29:58.161Z,974.66
2023-05-14T02:30:58.123Z,974.67
2023-05-14T02:31:58.106Z,974.74
2023-05-14T02:32:58.136Z,974.76
2023-05-14T02:33:58.078Z,974.74
2023-05-14T02:34:58.086Z,974.72
2023-05-14T02:35:58.057Z,974.71
2023-05-14T02:36:58.010Z,974.69
2023-05-14T02:37:58.015Z,974.67
2023-05-14T02:38:58.091Z,974.62
2023-05-14T02:39:57.997Z,974.66
2023-05-14T02:40:58.008Z,974.63
2023-05-14T02:41:57.954Z,974.64
2023-05-14T02:42:57.966Z,974.58
2023-05-14T02:43:57.931Z,974.64
2023-05-14T02:44:57.921Z,974.57
2023-05-14T02:45:57.954Z,974.62
2023-05-14T02:46:57.934Z,974.58
2023-05-14T02:47:57.958Z,974.54
2023-05-14T02:48:57.888Z,974.58
2023-05-14T02:49:57.874Z,974.58
2023-05-14T02:50:57.857Z,974.53
2023-05-14T02:51:57.897Z,974.57
2023-05-14T02:52:57.842Z,974.59
2023-05-14T02:53:57.815Z,974.64
2023-05-14T02:54:57.804Z,974.60
2023-05-14T02:55:57.807Z,974.53
2023-05-14T02:56:57.812Z,974.54
2023-05-14T02:57:57.773Z,974.56
2023-05-14T02:58:57.774Z,974.52
2023-05-14T02:59:57.742Z,974.50
2023-05-14T03:00:57.782Z,974.53
2023-05-14T03:01:57.743Z,974.52
2023-05-14T03:02:57.716Z,974.48
2023-05-14T03:03:57.706Z,974.48
2023-05-14T03:04:57.694Z,974.56
2023-05-14T03:05:57.686Z,974.48
2023-05-14T03:06:58.504Z,974.56
2023-05-14T03:07:57.644Z,974.53
2023-05-14T03:08:57.648Z,974.55
2023-05-14T03:09:57.639Z,974.50
2023-05-14T03:10:57.638Z,974.57
2023-05-14T03:11:57.624Z,974.53
2023-05-14T03:12:57.598Z,974.56
2023-05-14T03:13:57.576Z,974.57
2023-05-14T03:14:57.577Z,974.55
2023-05-14T03:15:57.574Z,974.57
2023-05-14T03:16:57.666Z,974.53
2023-05-14T03:17:57.548Z,974.53
2023-05-14T03:18:57.583Z,974.56
2023-05-14T03:19:57.505Z,974.55
2023-05-14T03:20:58.567Z,974.56
2023-05-14T03:21:57.468Z,974.51
2023-05-14T03:22:57.467Z,974.51
2023-05-14T03:23:57.492Z,974.46
2023-05-14T03:24:57.441Z,974.43
2023-05-14T03:25:57.442Z,974.47
2023-05-14T03:26:57.479Z,974.49
2023-05-14T03:27:57.406Z,974.50
2023-05-14T03:28:57.397Z,974.45
2023-05-14T03:29:57.416Z,974.48
2023-05-14T03:30:57.379Z,974.44
2023-05-14T03:31:57.403Z,974.44
2023-05-14T03:32:58.388Z,974.41
2023-05-14T03:33:57.342Z,974.43
2023-05-14T03:34:57.327Z,974.40
2023-05-14T03:35:57.321Z,974.42
2023-05-14T03:36:57.305Z,974.44
2023-05-14T03:37:57.317Z,974.46
2023-05-14T03:38:57.272Z,974.39
2023-05-14T03:39:57.254Z,974.40
2023-05-14T03:40:57.257Z,974.46
2023-05-14T03:41:57.268Z,974.40
2023-05-14T03:42:57.337Z,974.39
2023-05-14T03:43:57.224Z,974.39
2023-05-14T03:44:57.196Z,974.41
2023-05-14T03:45:57.188Z,974.41
2023-05-14T03:46:57.203Z,974.37
2023-05-14T03:47:57.267Z,974.38
2023-05-14T03:48:57.207Z,974.38
2023-05-14T03:49:57.163Z,974.38
2023-05-14T03:50:57.139Z,974.43
2023-05-14T03:51:57.149Z,974.44
2023-05-14T03:52:57.101Z,974.39
2023-05-14T03:53:57.127Z,974.42
2023-05-14T03:54:57.081Z,974.41
2023-05-14T03:55:57.068Z,974.37
2023-05-14T03:56:57.069Z,974.39
2023-05-14T03:57:57.064Z,974.39
2023-05-14T03:58:57.066Z,974.38
2023-05-14T03:59:57.045Z,974.39
2023-05-14T04:00:57.028Z,974.37
2023-05-14T04:01:57.107Z,974.38
2023-05-14T04:02:57.034Z,974.34
2023-05-14T04:03:57.139Z,974.28
2023-05-14T04:04:57.002Z,974.38
2023-05-14T04:05:56.961Z,974.35
2023-05-14T04:06:56.958Z,974.44
2023-05-14T04:07:56.962Z,974.41
2023-05-14T04:08:56.979Z,974.45
2023-05-14T04:09:56.917Z,974.46
2023-05-14T04:10:56.947Z,974.44
2023-05-14T04:11:56.890Z,974.43
2023-05-14T04:12:56.914Z,974.37
2023-05-14T04:13:56.882Z,974.37
2023-05-14T04:14:56.866Z,974.41
2023-05-14T04:15:56.879Z,974.39
2023-05-14T04:16:56.835Z,974.39
2023-05-14T04:17:56.875Z,974.34
2023-05-14T04:18:56.894Z,974.42
2023-05-14T04:19:56.809Z,974.35
2023-05-14T04:20:56.799Z,974.38
2023-05-14T04:21:57.761Z,974.41
2023-05-14T04:22:56.765Z,974.39
2023-05-14T04:23:56.751Z,974.38
2023-05-14T04:24:56.733Z,974.32
2023-05-14T04:25:56.729Z,974.37
2023-05-14T04:26:56.708Z,974.37
2023-05-14T04:27:56.707Z,974.34
2023-05-14T04:28:56.702Z,974.40
2023-05-14T04:29:56.697Z,974.37
2023-05-14T04:30:56.679Z,974.38
2023-05-14T04:31:56.673Z,974.39
2023-05-14T04:32:56.712Z,974.35
2023-05-14T04:33:56.718Z,974.43
2023-05-14T04:34:56.672Z,974.47
2023-05-14T04:35:56.617Z,974.48
2023-05-14T04:36:56.641Z,974.43
2023-05-14T04:37:56.595Z,974.48
2023-05-14T04:38:56.672Z,974.48
2023-05-14T04:39:56.568Z,974.45
2023-05-14T04:40:56.574Z,974.47
2023-05-14T04:41:56.551Z,974.42
2023-05-14T04:42:56.614Z,974.48
2023-05-14T04:43:56.793Z,974.43
2023-05-14T04:44:56.670Z,974.42
2023-05-14T04:45:56.742Z,974.44
2023-05-14T04:46:56.534Z,974.47
2023-05-14T04:47:56.602Z,974.38
2023-05-14T04:48:56.523Z,974.41
2023-05-14T04:49:56.501Z,974.42
2023-05-14T04:50:56.460Z,974.49
2023-05-14T04:51:56.514Z,974.49
2023-05-14T04:52:56.657Z,974.49
2023-05-14T04:53:56.534Z,974.49
2023-05-14T04:54:56.480Z,974.49
2023-05-14T04:55:56.469Z,974.52
2023-05-14T04:56:56.867Z,974.47
2023-05-14T04:57:56.441Z,974.46
2023-05-14T04:58:56.415Z,974.48
2023-05-14T04:59:56.352Z,974.51
2023-05-14T05:00:56.391Z,974.46
2023-05-14T05:01:56.380Z,974.46
2023-05-14T05:02:56.321Z,974.44
2023-05-14T05:03:56.343Z,974.46
2023-05-14T05:04:56.307Z,974.41
2023-05-14T05:05:56.637Z,974.47
2023-05-14T05:06:56.258Z,974.45
2023-05-14T05:07:56.292Z,974.43
2023-05-14T05:08:56.289Z,974.44
2023-05-14T05:09:56.257Z,974.43
2023-05-14T05:10:56.210Z,974.47
2023-05-14T05:11:56.217Z,974.45
2023-05-14T05:12:56.201Z,974.52
2023-05-14T05:13:56.236Z,974.44
2023-05-14T05:14:56.185Z,974.49
2023-05-14T05:15:56.225Z,974.57
2023-05-14T05:16:56.163Z,974.58
2023-05-14T05:17:56.159Z,974.47
2023-05-14T05:18:56.139Z,974.47
2023-05-14T05:19:56.145Z,974.42
2023-05-14T05:20:56.136Z,974.41
2023-05-14T05:21:56.245Z,974.39
2023-05-14T05:22:56.123Z,974.50
2023-05-14T05:23:57.069Z,974.44
2023-05-14T05:24:56.095Z,974.46
2023-05-14T05:25:56.057Z,974.45
2023-05-14T05:26:56.050Z,974.50
2023-05-14T05:27:56.089Z,974.43
2023-05-14T05:28:56.036Z,974.50
2023-05-14T05:29:55.996Z,974.46
2023-05-14T05:30:56.015Z,974.49
2023-05-14T05:31:56.066Z,974.47
2023-05-14T05:32:56.056Z,974.50
2023-05-14T05:33:55.957Z,974.45
2023-05-14T05:34:55.978Z,974.53
2023-05-14T05:35:55.952Z,974.49
2023-05-14T05:36:55.920Z,974.45
2023-05-14T05:37:55.891Z,974.52
2023-05-14T05:38:56.967Z,974.55
2023-05-14T05:39:55.892Z,974.49
2023-05-14T05:40:55.891Z,974.47
2023-05-14T05:41:55.856Z,974.51
2023-05-14T05:42:55.873Z,974.51
2023-05-14T05:43:55.847Z,974.52
2023-05-14T05:44:55.840Z,974.55
2023-05-14T05:45:55.854Z,974.53
2023-05-14T05:46:55.916Z,974.55
2023-05-14T05:47:56.009Z,974.48
2023-05-14T05:48:55.804Z,974.49
2023-05-14T05:49:55.819Z,974.46
2023-05-14T05:50:55.832Z,974.49
2023-05-14T05:51:56.490Z,974.43
2023-05-14T05:52:55.760Z,974.49
2023-05-14T05:53:55.744Z,974.53
2023-05-14T05:54:55.727Z,974.53
2023-05-14T05:55:55.710Z,974.46
2023-05-14T05:56:55.758Z,974.45
2023-05-14T05:57:55.677Z,974.43
2023-05-14T05:58:55.698Z,974.49
2023-05-14T05:59:55.672Z,974.54
2023-05-14T06:00:56.371Z,974.48
2023-05-14T06:01:55.673Z,974.54
2023-05-14T06:02:55.690Z,974.52
2023-05-14T06:03:55.644Z,974.52
2023-05-14T06:04:55.688Z,974.53
2023-05-14T06:05:55.623Z,974.54
2023-05-14T06:06:55.578Z,974.57
2023-05-14T06:07:55.636Z,974.56
2023-05-14T06:08:55.575Z,974.52
2023-05-14T06:09:55.546Z,974.56
2023-05-14T06:10:55.548Z,974.59
2023-05-14T06:11:55.539Z,974.56
2023-05-14T06:12:55.550Z,974.55
2023-05-14T06:13:55.505Z,974.56
2023-05-14T06:14:55.575Z,974.56
2023-05-14T06:15:55.479Z,974.59
2023-05-14T06:16:55.630Z,974.60
2023-05-14T06:17:55.515Z,974.59
2023-05-14T06:18:55.517Z,974.57
2023-05-14T06:19:55.471Z,974.63
2023-05-14T06:20:55.611Z,974.57
2023-05-14T06:21:55.633Z,974.63
2023-05-14T06:23:30.794Z,974.60
2023-05-14T06:23:55.654Z,974.64
2023-05-14T07:14:37.678Z,974.47
2023-05-14T07:15:38.648Z,974.48
2023-05-14T07:16:38.830Z,974.53
2023-05-14T07:17:38.652Z,974.51
2023-05-14T07:18:38.621Z,974.46
2023-05-14T07:19:38.622Z,974.43
2023-05-14T07:20:38.586Z,974.40
2023-05-14T07:21:38.619Z,974.44
2023-05-14T07:22:38.585Z,974.39
2023-05-14T07:23:38.550Z,974.41
2023-05-14T07:24:38.573Z,974.38
2023-05-14T07:25:38.531Z,974.36
2023-05-14T07:26:38.555Z,974.35
2023-05-14T07:27:38.612Z,974.40
2023-05-14T07:28:38.699Z,974.34
2023-05-14T07:29:38.644Z,974.33
2023-05-14T07:31:14.510Z,974.36
2023-05-14T07:31:38.852Z,974.29
2023-05-14T07:32:38.577Z,974.32
2023-05-14T07:33:38.517Z,974.28
2023-05-14T07:34:38.767Z,974.35
2023-05-14T07:35:38.487Z,974.31
2023-05-14T07:36:38.554Z,974.36
2023-05-14T07:37:39.153Z,974.28
2023-05-14T07:47:57.895Z,974.17
2023-05-14T07:48:57.810Z,974.17
2023-05-14T07:49:57.911Z,974.18
2023-05-14T07:50:57.726Z,974.18
2023-05-14T07:51:57.677Z,974.16
2023-05-14T07:52:57.843Z,974.17
2023-05-14T07:53:57.690Z,974.18
2023-05-14T07:54:57.672Z,974.20
2023-05-14T07:55:57.633Z,974.18
2023-05-14T07:56:57.645Z,974.10
2023-05-14T08:05:39.420Z,974.12
2023-05-14T08:06:39.494Z,974.10
2023-05-14T08:07:39.349Z,974.11
2023-05-14T08:08:39.298Z,974.15
2023-05-14T08:09:39.291Z,974.13
2023-05-14T08:10:39.389Z,974.15
2023-05-14T08:11:39.314Z,974.09
2023-05-14T08:12:39.296Z,974.09
2023-05-14T08:13:39.248Z,974.06
2023-05-14T08:14:39.289Z,974.03
2023-05-14T08:15:39.336Z,974.02
2023-05-14T08:16:40.627Z,974.01
2023-05-14T08:17:40.371Z,974.16
2023-05-14T08:18:40.368Z,974.03
2023-05-14T08:19:40.313Z,974.09
2023-05-14T08:20:40.283Z,974.08
2023-05-14T08:21:40.326Z,974.06
2023-05-14T08:22:40.266Z,974.00
2023-05-14T08:23:40.266Z,974.00
2023-05-14T08:24:40.239Z,974.04
2023-05-14T08:25:40.228Z,974.02
2023-05-14T08:26:40.248Z,974.06
2023-05-14T08:27:40.188Z,974.04
2023-05-14T08:28:40.195Z,974.02
2023-05-14T08:29:40.168Z,974.06
2023-05-14T08:30:40.164Z,974.00
2023-05-14T08:31:40.160Z,974.00
2023-05-14T08:32:40.195Z,974.00
2023-05-14T08:33:40.124Z,973.98
2023-05-14T08:34:40.430Z,974.03
2023-05-14T08:35:40.110Z,974.04
2023-05-14T08:36:40.081Z,974.05
2023-05-14T08:37:40.128Z,973.97
2023-05-14T08:38:40.056Z,973.98
2023-05-14T08:39:40.059Z,974.03
2023-05-14T08:40:40.049Z,974.05
2023-05-14T08:41:40.010Z,973.97
2023-05-14T08:42:40.031Z,973.96
2023-05-14T08:43:40.014Z,973.87
2023-05-14T08:44:40.009Z,973.94
2023-05-14T08:45:39.990Z,973.91
2023-05-14T08:46:39.969Z,973.86
2023-05-14T08:47:39.998Z,973.88
2023-05-14T08:48:39.977Z,973.83
2023-05-14T08:49:39.939Z,973.83
2023-05-14T08:50:39.916Z,973.77
2023-05-14T08:51:39.885Z,973.82
2023-05-14T08:52:39.903Z,973.78
2023-05-14T08:53:40.010Z,973.81
2023-05-14T08:54:39.859Z,973.79
2023-05-14T08:55:39.873Z,973.77
2023-05-14T08:56:39.830Z,973.86
2023-05-14T08:57:39.822Z,973.89
2023-05-14T08:58:39.821Z,973.86
2023-05-14T08:59:39.856Z,973.82
2023-05-14T09:00:39.777Z,973.79
2023-05-14T09:01:39.818Z,973.74
2023-05-14T09:02:39.851Z,973.81
2023-05-14T09:03:39.821Z,973.78
2023-05-14T09:04:39.775Z,973.77
2023-05-14T09:05:39.712Z,973.79
2023-05-14T09:06:39.718Z,973.79
2023-05-14T09:07:39.682Z,973.84
2023-05-14T09:08:39.789Z,973.77
2023-05-14T09:09:39.726Z,973.79
2023-05-14T09:10:39.680Z,973.80
2023-05-14T09:11:39.649Z,973.73
2023-05-14T09:12:39.636Z,973.78
2023-05-14T09:13:39.611Z,973.72
2023-05-14T09:14:39.595Z,973.66
2023-05-14T09:15:39.622Z,973.71
2023-05-14T09:16:39.614Z,973.67
2023-05-14T09:17:39.567Z,973.63
2023-05-14T09:18:39.587Z,973.69
2023-05-14T09:19:39.551Z,973.63
2023-05-14T09:20:39.572Z,973.73
2023-05-14T09:21:39.565Z,973.67
2023-05-14T09:22:39.504Z,973.71
2023-05-14T09:23:39.496Z,973.62
2023-05-14T09:24:39.484Z,973.66
2023-05-14T09:25:39.547Z,973.57
2023-05-14T09:26:39.470Z,973.72
2023-05-14T09:27:39.437Z,973.68
2023-05-14T09:28:39.424Z,973.66
2023-05-14T09:29:39.436Z,973.65
2023-05-14T09:30:39.407Z,973.71
2023-05-14T09:31:39.495Z,973.66
2023-05-14T09:32:39.476Z,973.66
2023-05-14T09:33:39.384Z,973.55
2023-05-14T09:34:39.358Z,973.62
2023-05-14T09:35:39.342Z,973.66
2023-05-14T09:36:39.380Z,973.61
2023-05-14T09:37:39.314Z,973.66
2023-05-14T09:38:39.316Z,973.65
2023-05-14T09:39:39.298Z,973.66
2023-05-14T09:40:39.276Z,973.60
2023-05-14T09:41:39.263Z,973.63
2023-05-14T09:42:39.274Z,973.61
2023-05-14T09:43:39.252Z,973.55
2023-05-14T09:44:39.240Z,973.59
2023-05-14T09:45:39.206Z,973.58
2023-05-14T09:46:39.213Z,973.51
2023-05-14T09:47:39.271Z,973.53
2023-05-14T09:48:39.727Z,973.49
2023-05-14T09:49:39.173Z,973.58
2023-05-14T09:50:39.172Z,973.50
2023-05-14T09:51:39.134Z,973.48
2023-05-14T09:52:39.151Z,973.58
2023-05-14T09:53:39.121Z,973.50
2023-05-14T09:54:39.089Z,973.52
2023-05-14T09:55:39.098Z,973.52
2023-05-14T09:56:39.081Z,973.47
2023-05-14T09:57:39.496Z,973.44
2023-05-14T09:58:39.132Z,973.52
2023-05-14T09:59:39.051Z,973.49
2023-05-14T10:00:39.028Z,973.47
2023-05-14T10:01:39.316Z,973.42
2023-05-14T10:02:39.091Z,973.47
2023-05-14T10:03:39.049Z,973.36
2023-05-14T10:04:39.067Z,973.37
2023-05-14T10:05:38.979Z,973.38
2023-05-14T10:06:38.951Z,973.40
2023-05-14T10:07:38.942Z,973.31
2023-05-14T10:08:38.943Z,973.36
2023-05-14T10:09:38.954Z,973.27
2023-05-14T10:10:38.922Z,973.32
2023-05-14T10:11:38.964Z,973.27
2023-05-14T10:12:38.871Z,973.30
2023-05-14T10:13:38.874Z,973.21
2023-05-14T10:14:39.133Z,973.19
2023-05-14T10:15:38.894Z,973.22
2023-05-14T10:16:38.880Z,973.21
2023-05-14T10:17:38.938Z,973.22
2023-05-14T10:18:38.848Z,973.21
2023-05-14T10:19:38.814Z,973.23
2023-05-14T10:20:38.856Z,973.21
2023-05-14T10:21:38.779Z,973.19
2023-05-14T10:22:38.765Z,973.21
2023-05-14T10:23:38.739Z,973.15
2023-05-14T10:24:38.803Z,973.22
2023-05-14T10:25:38.756Z,973.22
2023-05-14T10:26:38.738Z,973.30
2023-05-14T10:27:38.751Z,973.24
2023-05-14T10:28:38.682Z,973.31
2023-05-14T10:29:38.710Z,973.21
2023-05-14T10:30:38.731Z,973.20
2023-05-14T10:31:38.819Z,973.21
2023-05-14T10:32:38.708Z,973.11
2023-05-14T10:33:38.674Z,973.13
2023-05-14T10:34:38.734Z,973.13
2023-05-14T10:35:38.624Z,973.11
2023-05-14T10:36:38.634Z,973.09
2023-05-14T10:37:38.808Z,973.11
2023-05-14T10:38:38.631Z,973.15
2023-05-14T10:39:38.580Z,973.15
2023-05-14T10:40:38.612Z,973.10
2023-05-14T10:41:38.564Z,973.02
2023-05-14T10:42:38.727Z,973.14
2023-05-14T10:43:39.367Z,973.06
2023-05-14T10:44:38.561Z,973.11
2023-05-14T10:45:38.541Z,973.04
2023-05-14T10:46:38.592Z,972.98
2023-05-14T10:47:38.569Z,973.02
2023-05-14T10:48:38.489Z,973.08
2023-05-14T10:49:43.538Z,973.07
2023-05-14T10:50:38.495Z,972.95
2023-05-14T10:51:38.611Z,973.00
2023-05-14T10:52:39.204Z,973.01
2023-05-14T10:53:38.432Z,972.96
2023-05-14T10:54:38.459Z,972.94
2023-05-14T10:55:38.506Z,972.93
2023-05-14T10:56:38.465Z,972.88
2023-05-14T10:57:38.431Z,972.87
2023-05-14T10:58:38.394Z,972.87
2023-05-14T10:59:38.494Z,972.89
2023-05-14T11:00:38.384Z,972.84
2023-05-14T11:01:38.436Z,972.79
2023-05-14T11:02:38.418Z,972.80
2023-05-14T11:03:38.366Z,972.82
2023-05-14T11:04:38.326Z,972.81
2023-05-14T11:05:38.296Z,972.68
2023-05-14T11:06:38.306Z,972.71
2023-05-14T11:07:38.309Z,972.71
2023-05-14T11:08:38.277Z,972.83
2023-05-14T11:09:38.578Z,972.76
2023-05-14T11:10:39.172Z,972.75
2023-05-14T11:11:38.220Z,972.74
2023-05-14T11:12:38.283Z,972.71
2023-05-14T11:13:38.230Z,972.81
2023-05-14T11:14:38.463Z,972.73
2023-05-14T11:15:39.283Z,972.69
2023-05-14T11:16:38.179Z,972.65
2023-05-14T11:17:38.371Z,972.67
2023-05-14T11:18:38.207Z,972.65
2023-05-14T11:19:38.180Z,972.59
2023-05-14T11:20:38.120Z,972.58
2023-05-14T11:21:38.263Z,972.53
2023-05-14T11:22:38.164Z,972.58
2023-05-14T11:23:38.134Z,972.60
2023-05-14T11:24:38.067Z,972.54
2023-05-14T11:25:38.114Z,972.54
2023-05-14T11:26:38.026Z,972.52
2023-05-14T11:27:38.194Z,972.54
2023-05-14T11:28:38.110Z,972.53
2023-05-14T11:29:38.028Z,972.54
2023-05-14T11:30:38.011Z,972.57
2023-05-14T11:31:38.122Z,972.48
2023-05-14T11:32:38.032Z,972.56
2023-05-14T11:33:38.050Z,972.56
2023-05-14T11:34:37.970Z,972.59
2023-05-14T11:35:37.981Z,972.49
2023-05-14T11:36:37.950Z,972.54
2023-05-14T11:37:37.889Z,972.61
2023-05-14T11:38:37.903Z,972.49
2023-05-14T11:39:38.000Z,972.52
2023-05-14T11:40:37.844Z,972.46
2023-05-14T11:41:37.830Z,972.49
2023-05-14T11:42:37.813Z,972.52
2023-05-14T11:43:37.858Z,972.56
2023-05-14T11:44:37.812Z,972.49
2023-05-14T11:45:37.802Z,972.50
2023-05-14T11:46:37.834Z,972.46
2023-05-14T11:47:37.864Z,972.36
2023-05-14T11:48:37.781Z,972.48
2023-05-14T11:49:37.749Z,972.37
2023-05-14T11:50:37.716Z,972.48
2023-05-14T11:51:37.714Z,972.38
2023-05-14T11:52:37.733Z,972.34
2023-05-14T11:53:37.696Z,972.31
2023-05-14T11:54:37.671Z,972.32
2023-05-14T11:55:37.770Z,972.31
2023-05-14T11:56:37.660Z,972.28
2023-05-14T11:57:37.633Z,972.29
2023-05-14T11:58:37.697Z,972.31
2023-05-14T11:59:37.619Z,972.30
2023-05-14T12:00:37.677Z,972.30
2023-05-14T12:01:37.623Z,972.27
2023-05-14T12:02:37.706Z,972.24
2023-05-14T12:03:37.820Z,972.17
2023-05-14T12:04:37.619Z,972.25
2023-05-14T12:05:37.605Z,972.26
2023-05-14T12:06:37.646Z,972.22
2023-05-14T12:07:37.539Z,972.22
2023-05-14T12:08:37.528Z,972.23
2023-05-14T12:09:37.532Z,972.23
2023-05-14T12:10:37.485Z,972.19
2023-05-14T12:11:37.518Z,972.16
2023-05-14T12:12:37.544Z,972.22
2023-05-14T12:13:37.464Z,972.24
2023-05-14T12:14:37.478Z,972.18
2023-05-14T12:15:37.488Z,972.18
2023-05-14T12:16:38.500Z,972.19
2023-05-14T12:17:38.481Z,972.15
2023-05-14T12:18:37.509Z,972.16
2023-05-14T12:19:37.406Z,972.15
2023-05-14T12:20:37.368Z,972.17
2023-05-14T12:21:37.355Z,972.12
2023-05-14T12:22:37.368Z,972.09
2023-05-14T12:23:37.320Z,972.12
2023-05-14T12:24:37.313Z,972.10
2023-05-14T12:25:37.372Z,972.07
2023-05-14T12:26:37.430Z,972.10
2023-05-14T12:27:37.584Z,972.03
2023-05-14T12:28:38.530Z,972.01
2023-05-14T12:29:37.384Z,971.96
2023-05-14T12:30:37.285Z,971.98
2023-05-14T12:31:37.384Z,971.95
2023-05-14T12:32:37.456Z,971.99
2023-05-14T12:33:37.321Z,972.05
2023-05-14T12:34:37.678Z,972.04
2023-05-14T13:29:16.877Z,971.69
2023-05-14T13:30:18.701Z,971.67
2023-05-14T13:31:18.460Z,971.69
2023-05-14T13:32:17.827Z,971.70
2023-05-14T13:33:18.293Z,971.65
2023-05-14T13:34:18.062Z,971.65
2023-05-14T13:35:17.897Z,971.62
2023-05-14T13:36:17.970Z,971.60
2023-05-14T13:37:19.127Z,971.62
2023-05-14T13:38:19.426Z,971.59
2023-05-14T13:39:18.155Z,971.60
2023-05-14T13:40:18.708Z,971.57
2023-05-14T13:41:18.165Z,971.58
2023-05-14T13:42:18.844Z,971.58
2023-05-14T13:43:18.190Z,971.52
2023-05-14T13:44:18.160Z,971.49
2023-05-14T13:45:18.065Z,971.52
2023-05-14T13:46:17.929Z,971.53
2023-05-14T13:47:18.396Z,971.47
2023-05-14T13:48:17.831Z,971.50
2023-05-14T13:49:17.731Z,971.49
2023-05-14T13:50:17.854Z,971.47
2023-05-14T13:51:17.656Z,971.52
2023-05-14T13:52:17.666Z,971.43
2023-05-14T13:53:17.569Z,971.45
2023-05-14T13:54:17.595Z,971.45
2023-05-14T13:55:17.587Z,971.37
2023-05-14T13:56:17.551Z,971.38
2023-05-14T13:57:18.606Z,971.34
2023-05-14T13:58:17.504Z,971.33
2023-05-14T13:59:17.525Z,971.33
2023-05-14T14:00:17.625Z,971.31
2023-05-14T14:01:17.826Z,971.32
2023-05-14T14:02:17.486Z,971.28
2023-05-14T14:03:17.491Z,971.38
2023-05-14T14:04:17.437Z,971.28
2023-05-14T14:05:18.097Z,971.30
2023-05-14T14:06:17.813Z,971.44
2023-05-14T14:07:17.487Z,971.41
2023-05-14T14:08:23.537Z,971.41
2023-05-14T14:09:18.596Z,971.43
2023-05-14T14:10:17.519Z,971.48
2023-05-14T14:11:17.489Z,971.42
2023-05-14T14:12:17.838Z,971.55
2023-05-14T14:13:17.471Z,971.57
2023-05-14T15:41:00.020Z,971.31
2023-05-14T15:42:01.104Z,971.25
2023-05-14T15:43:01.181Z,971.28
2023-05-14T15:44:01.038Z,971.26
2023-05-14T15:45:00.967Z,971.29
2023-05-14T15:46:00.984Z,971.35
2023-05-14T15:47:00.961Z,971.28
2023-05-14T15:48:00.980Z,971.21
2023-05-14T15:49:01.373Z,971.18
2023-05-14T15:50:00.989Z,971.21
2023-05-14T15:51:00.896Z,971.12
2023-05-14T18:25:23.988Z,971.23
2023-05-14T18:26:24.907Z,971.20
2023-05-14T18:27:25.205Z,971.14
2023-05-14T18:28:24.755Z,971.13
2023-05-14T18:29:25.750Z,971.15